createdAt,value
2018-05-18T00:00:10.778Z,26.90
2018-05-18T00:01:10.726Z,22.90
2018-05-18T00:02:10.797Z,32.00
2018-05-18T00:03:10.659Z,24.90
2018-05-18T00:04:10.625Z,19.80
2018-05-18T00:05:10.640Z,19.90
2018-05-18T00:06:10.536Z,20.10
2018-05-18T00:07:10.572Z,31.70
2018-05-18T00:08:10.499Z,24.80
2018-05-18T00:09:10.416Z,29.10
2018-05-18T00:10:10.424Z,25.90
2018-05-18T00:11:10.474Z,27.40
2018-05-18T00:12:10.365Z,22.20
2018-05-18T00:13:10.260Z,22.90
2018-05-18T00:14:10.218Z,22.90
2018-05-18T00:15:10.239Z,23.00
2018-05-18T00:16:10.136Z,19.70
2018-05-18T00:17:10.125Z,19.70
2018-05-18T00:18:10.084Z,22.00
2018-05-18T00:19:10.069Z,21.30
2018-05-18T00:20:09.988Z,21.10
2018-05-18T00:21:09.969Z,20.80
2018-05-18T00:22:09.899Z,23.20
2018-05-18T00:23:09.865Z,21.90
2018-05-18T00:24:09.844Z,23.10
2018-05-18T00:25:09.786Z,23.10
2018-05-18T00:26:09.816Z,24.60
2018-05-18T00:27:09.721Z,23.90
2018-05-18T00:28:09.659Z,24.90
2018-05-18T00:29:09.635Z,24.20
2018-05-18T00:30:09.591Z,23.50
2018-05-18T00:31:09.556Z,24.90
2018-05-18T00:32:09.540Z,23.80
2018-05-18T00:33:09.571Z,22.80
2018-05-18T00:34:09.440Z,23.70
2018-05-18T00:35:09.525Z,23.00
2018-05-18T00:36:10.179Z,22.70
2018-05-18T00:37:09.313Z,24.20
2018-05-18T00:38:09.282Z,23.90
2018-05-18T00:39:09.221Z,23.70
2018-05-18T00:40:09.210Z,24.00
2018-05-18T00:41:09.152Z,25.50
2018-05-18T00:42:09.124Z,24.70
2018-05-18T00:43:09.087Z,23.00
2018-05-18T00:44:09.084Z,23.40
2018-05-18T00:45:08.995Z,23.80
2018-05-18T00:46:08.987Z,23.70
2018-05-18T00:47:08.989Z,23.30
2018-05-18T00:48:08.904Z,23.40
2018-05-18T00:49:08.867Z,24.30
2018-05-18T00:50:08.819Z,25.40
2018-05-18T00:51:08.872Z,24.70
2018-05-18T00:52:08.723Z,24.30
2018-05-18T00:53:08.722Z,24.00
2018-05-18T00:54:08.671Z,24.70
2018-05-18T00:55:08.617Z,24.70
2018-05-18T00:56:08.585Z,24.40
2018-05-18T00:57:08.563Z,22.50
2018-05-18T00:58:08.571Z,23.90
2018-05-18T00:59:08.535Z,23.30
2018-05-18T01:00:08.460Z,22.30
2018-05-18T01:01:08.475Z,22.70
2018-05-18T01:02:08.361Z,24.00
2018-05-18T01:03:44.285Z,23.50
2018-05-18T01:04:08.280Z,23.80
2018-05-18T01:05:08.212Z,24.30
2018-05-18T01:06:08.179Z,23.30
2018-05-18T01:07:08.167Z,23.80
2018-05-18T01:08:08.175Z,22.70
2018-05-18T01:09:08.070Z,22.90
2018-05-18T01:10:08.033Z,22.70
2018-05-18T01:11:08.004Z,23.80
2018-05-18T01:12:07.961Z,24.60
2018-05-18T01:13:28.986Z,24.00
2018-05-18T01:14:07.892Z,24.20
2018-05-18T01:15:07.840Z,23.90
2018-05-18T01:16:07.802Z,23.20
2018-05-18T01:17:08.696Z,23.40
2018-05-18T01:18:07.720Z,22.30
2018-05-18T01:19:07.780Z,22.40
2018-05-18T01:20:07.645Z,23.10
2018-05-18T01:21:07.605Z,23.10
2018-05-18T01:22:07.576Z,22.20
2018-05-18T01:23:28.553Z,21.70
2018-05-18T01:24:07.556Z,21.10
2018-05-18T01:25:08.193Z,20.50
2018-05-18T01:26:07.520Z,20.90
2018-05-18T01:27:07.421Z,20.90
2018-05-18T01:28:07.377Z,20.60
2018-05-18T01:29:07.300Z,21.80
2018-05-18T01:30:07.271Z,20.80
2018-05-18T01:31:07.245Z,21.40
2018-05-18T01:32:07.215Z,20.90
2018-05-18T01:33:07.154Z,21.50
2018-05-18T01:34:07.103Z,20.80
2018-05-18T01:35:07.094Z,21.90
2018-05-18T01:36:07.025Z,21.70
2018-05-18T01:37:07.013Z,20.30
2018-05-18T01:38:06.990Z,21.40
2018-05-18T01:39:06.942Z,20.60
2018-05-18T01:40:06.879Z,20.30
2018-05-18T01:41:06.852Z,20.40
2018-05-18T01:42:06.801Z,21.10
2018-05-18T01:43:06.779Z,19.90
2018-05-18T01:44:06.742Z,19.60
2018-05-18T01:45:06.693Z,21.10
2018-05-18T01:46:06.742Z,19.50
2018-05-18T01:47:06.627Z,21.40
2018-05-18T01:48:06.622Z,20.70
2018-05-18T01:49:07.207Z,20.40
2018-05-18T01:50:06.496Z,20.30
2018-05-18T01:51:06.471Z,19.30
2018-05-18T01:52:06.426Z,19.00
2018-05-18T01:53:06.395Z,20.90
2018-05-18T01:54:06.366Z,21.20
2018-05-18T01:55:06.332Z,20.20
2018-05-18T01:56:06.286Z,19.60
2018-05-18T01:57:06.239Z,19.40
2018-05-18T01:58:06.215Z,18.80
2018-05-18T01:59:06.156Z,19.10
2018-05-18T02:00:06.185Z,19.70
2018-05-18T02:01:06.081Z,19.50
2018-05-18T02:02:06.066Z,20.50
2018-05-18T02:03:06.007Z,20.10
2018-05-18T02:04:06.030Z,21.30
2018-05-18T02:05:05.941Z,19.60
2018-05-18T02:06:05.893Z,20.00
2018-05-18T02:07:05.969Z,19.80
2018-05-18T02:08:05.826Z,17.20
2018-05-18T02:09:05.839Z,17.30
2018-05-18T02:10:05.764Z,18.90
2018-05-18T02:11:06.200Z,19.00
2018-05-18T02:12:05.723Z,18.20
2018-05-18T02:13:05.639Z,18.90
2018-05-18T02:14:05.651Z,19.30
2018-05-18T02:15:05.605Z,19.30
2018-05-18T02:16:05.542Z,19.00
2018-05-18T02:17:05.571Z,18.80
2018-05-18T02:18:05.444Z,19.50
2018-05-18T02:19:05.419Z,19.00
2018-05-18T02:20:05.424Z,19.80
2018-05-18T02:21:05.371Z,18.20
2018-05-18T02:22:05.317Z,18.80
2018-05-18T02:23:05.246Z,18.30
2018-05-18T02:24:05.221Z,19.20
2018-05-18T02:25:05.250Z,18.00
2018-05-18T02:26:05.155Z,18.70
2018-05-18T02:27:05.187Z,18.40
2018-05-18T02:28:05.110Z,18.30
2018-05-18T02:29:05.047Z,18.20
2018-05-18T02:30:05.063Z,18.00
2018-05-18T02:31:04.957Z,17.50
2018-05-18T02:32:04.925Z,17.50
2018-05-18T02:33:04.889Z,17.60
2018-05-18T02:34:04.865Z,17.20
2018-05-18T02:35:04.814Z,17.40
2018-05-18T02:36:04.923Z,18.20
2018-05-18T02:37:04.742Z,19.00
2018-05-18T02:38:04.714Z,18.80
2018-05-18T02:39:04.672Z,18.80
2018-05-18T02:40:04.647Z,18.70
2018-05-18T02:41:04.593Z,19.20
2018-05-18T02:42:04.552Z,19.70
2018-05-18T02:43:04.512Z,18.60
2018-05-18T02:44:04.485Z,19.00
2018-05-18T02:45:04.445Z,17.90
2018-05-18T02:46:04.406Z,18.00
2018-05-18T02:47:04.357Z,18.60
2018-05-18T02:48:04.339Z,18.40
2018-05-18T02:49:04.311Z,18.00
2018-05-18T02:50:04.262Z,17.10
2018-05-18T02:51:04.219Z,17.50
2018-05-18T02:52:04.291Z,17.50
2018-05-18T02:53:04.134Z,17.90
2018-05-18T02:54:04.102Z,17.80
2018-05-18T02:55:04.068Z,17.70
2018-05-18T02:56:04.026Z,17.70
2018-05-18T02:57:03.999Z,18.40
2018-05-18T02:58:03.967Z,19.10
2018-05-18T02:59:03.901Z,18.60
2018-05-18T03:00:03.935Z,18.20
2018-05-18T03:01:03.833Z,18.60
2018-05-18T03:02:03.800Z,18.90
2018-05-18T03:03:03.769Z,17.90
2018-05-18T03:04:03.722Z,17.20
2018-05-18T03:05:03.690Z,17.10
2018-05-18T03:06:03.659Z,16.70
2018-05-18T03:07:03.771Z,18.20
2018-05-18T03:08:03.565Z,17.80
2018-05-18T03:09:03.544Z,18.30
2018-05-18T03:10:03.553Z,17.00
2018-05-18T03:11:03.468Z,18.20
2018-05-18T03:12:03.444Z,17.50
2018-05-18T03:13:03.403Z,18.20
2018-05-18T03:14:03.422Z,19.50
2018-05-18T03:15:03.311Z,17.60
2018-05-18T03:16:03.269Z,17.80
2018-05-18T03:17:03.238Z,17.70
2018-05-18T03:18:03.225Z,18.10
2018-05-18T03:19:03.214Z,17.30
2018-05-18T03:20:03.162Z,18.20
2018-05-18T03:21:03.123Z,17.60
2018-05-18T03:22:03.060Z,17.20
2018-05-18T03:23:03.023Z,17.60
2018-05-18T03:24:02.993Z,16.50
2018-05-18T03:25:02.975Z,16.70
2018-05-18T03:26:02.947Z,17.20
2018-05-18T03:27:02.887Z,17.40
2018-05-18T03:28:02.924Z,17.20
2018-05-18T03:29:02.800Z,18.00
2018-05-18T03:30:02.766Z,16.20
2018-05-18T03:31:02.716Z,16.70
2018-05-18T03:32:02.741Z,16.70
2018-05-18T03:33:02.646Z,17.40
2018-05-18T03:34:02.604Z,16.80
2018-05-18T03:35:02.571Z,16.50
2018-05-18T03:36:02.543Z,16.60
2018-05-18T03:37:02.538Z,15.60
2018-05-18T03:38:02.501Z,15.90
2018-05-18T03:39:02.412Z,16.10
2018-05-18T03:40:02.413Z,15.40
2018-05-18T03:41:02.371Z,15.40
2018-05-18T03:42:02.334Z,15.50
2018-05-18T03:43:02.287Z,15.70
2018-05-18T03:44:02.242Z,16.60
2018-05-18T03:45:02.250Z,16.90
2018-05-18T03:46:02.172Z,16.50
2018-05-18T03:47:02.145Z,16.90
2018-05-18T03:48:02.084Z,16.30
2018-05-18T03:49:02.053Z,16.70
2018-05-18T03:50:02.023Z,17.10
2018-05-18T03:51:01.975Z,16.60
2018-05-18T03:52:02.042Z,17.50
2018-05-18T03:53:01.912Z,16.70
2018-05-18T03:54:01.885Z,16.90
2018-05-18T03:55:01.836Z,17.00
2018-05-18T03:56:01.811Z,16.80
2018-05-18T03:57:01.765Z,15.90
2018-05-18T03:58:01.709Z,16.00
2018-05-18T03:59:01.670Z,16.80
2018-05-18T04:00:01.647Z,16.30
2018-05-18T04:01:01.617Z,15.90
2018-05-18T04:02:01.569Z,16.20
2018-05-18T04:03:01.534Z,17.20
2018-05-18T04:04:01.528Z,15.40
2018-05-18T04:05:01.481Z,16.50
2018-05-18T04:06:01.465Z,16.40
2018-05-18T04:07:01.417Z,16.40
2018-05-18T04:08:01.399Z,15.90
2018-05-18T04:09:01.307Z,17.50
2018-05-18T04:10:01.435Z,15.70
2018-05-18T04:11:01.281Z,16.10
2018-05-18T04:12:01.214Z,16.50
2018-05-18T04:13:01.185Z,17.20
2018-05-18T04:14:01.147Z,16.40
2018-05-18T04:15:01.122Z,16.40
2018-05-18T04:16:01.097Z,15.60
2018-05-18T04:17:00.986Z,15.70
2018-05-18T04:18:01.000Z,15.80
2018-05-18T04:19:01.055Z,16.80
2018-05-18T04:20:00.921Z,15.90
2018-05-18T04:21:00.879Z,16.00
2018-05-18T04:22:00.817Z,16.30
2018-05-18T04:23:00.816Z,16.40
2018-05-18T04:24:00.740Z,14.80
2018-05-18T04:25:00.700Z,15.10
2018-05-18T04:26:00.654Z,15.80
2018-05-18T04:27:00.703Z,15.60
2018-05-18T04:28:00.627Z,16.00
2018-05-18T04:29:00.571Z,15.70
2018-05-18T04:30:00.578Z,15.70
2018-05-18T04:31:00.510Z,15.60
2018-05-18T04:32:00.477Z,15.70
2018-05-18T04:33:00.417Z,15.70
2018-05-18T04:34:00.370Z,15.20
2018-05-18T04:35:00.371Z,15.60
2018-05-18T04:36:00.394Z,14.80
2018-05-18T04:37:00.293Z,16.00
2018-05-18T04:38:00.243Z,15.50
2018-05-18T04:39:00.190Z,16.90
2018-05-18T04:40:00.189Z,16.30
2018-05-18T04:41:00.135Z,15.80
2018-05-18T04:42:00.145Z,15.30
2018-05-18T04:43:00.044Z,16.50
2018-05-18T04:44:00.048Z,15.20
2018-05-18T04:45:00.030Z,15.20
2018-05-18T04:45:59.959Z,14.60
2018-05-18T04:46:59.914Z,15.10
2018-05-18T04:47:59.850Z,14.60
2018-05-18T04:48:59.851Z,14.90
2018-05-18T04:49:59.893Z,14.80
2018-05-18T04:50:59.768Z,14.40
2018-05-18T04:51:59.728Z,14.10
2018-05-18T04:52:59.680Z,14.40
2018-05-18T04:53:59.667Z,14.20
2018-05-18T04:54:59.629Z,14.20
2018-05-18T04:55:59.603Z,14.80
2018-05-18T04:56:59.530Z,14.40
2018-05-18T04:57:59.487Z,13.30
2018-05-18T04:58:59.480Z,14.90
2018-05-18T04:59:59.423Z,14.10
2018-05-18T05:00:59.383Z,15.20
2018-05-18T05:01:59.353Z,14.60
2018-05-18T05:02:59.296Z,13.80
2018-05-18T05:03:59.277Z,14.20
2018-05-18T05:04:59.272Z,14.80
2018-05-18T05:05:59.216Z,14.30
2018-05-18T05:06:59.167Z,14.30
2018-05-18T05:07:59.134Z,13.70
2018-05-18T05:08:59.079Z,14.70
2018-05-18T05:09:59.057Z,13.50
2018-05-18T05:10:59.033Z,14.00
2018-05-18T05:11:59.017Z,12.80
2018-05-18T05:12:59.760Z,12.90
2018-05-18T05:13:58.958Z,13.50
2018-05-18T05:14:58.870Z,13.20
2018-05-18T05:15:58.828Z,12.80
2018-05-18T05:16:58.800Z,12.80
2018-05-18T05:17:58.799Z,12.40
2018-05-18T05:18:58.734Z,13.60
2018-05-18T05:19:59.244Z,12.40
2018-05-18T05:20:58.654Z,13.00
2018-05-18T05:21:58.617Z,13.00
2018-05-18T05:22:58.588Z,12.90
2018-05-18T05:23:58.528Z,13.50
2018-05-18T05:24:58.490Z,13.30
2018-05-18T05:25:58.448Z,12.40
2018-05-18T05:26:58.427Z,12.80
2018-05-18T05:27:58.430Z,12.60
2018-05-18T05:28:58.361Z,12.10
2018-05-18T05:29:58.300Z,12.80
2018-05-18T05:30:58.276Z,12.20
2018-05-18T05:31:58.285Z,11.90
2018-05-18T05:32:58.219Z,12.30
2018-05-18T05:33:58.190Z,11.10
2018-05-18T05:34:58.144Z,12.30
2018-05-18T05:35:58.078Z,12.80
2018-05-18T05:36:58.076Z,12.70
2018-05-18T05:37:58.019Z,12.50
2018-05-18T05:38:57.991Z,13.10
2018-05-18T05:39:57.927Z,12.30
2018-05-18T05:40:57.900Z,11.90
2018-05-18T05:41:57.876Z,12.40
2018-05-18T05:42:57.830Z,13.30
2018-05-18T05:43:57.787Z,10.80
2018-05-18T05:44:57.759Z,12.20
2018-05-18T05:45:57.725Z,12.00
2018-05-18T05:46:57.748Z,12.00
2018-05-18T05:47:57.654Z,13.00
2018-05-18T05:48:57.632Z,12.10
2018-05-18T05:49:57.564Z,12.10
2018-05-18T05:50:57.521Z,11.80
2018-05-18T05:51:57.502Z,11.70
2018-05-18T05:52:57.557Z,11.90
2018-05-18T05:53:57.437Z,12.20
2018-05-18T05:54:57.395Z,12.00
2018-05-18T05:55:57.373Z,11.80
2018-05-18T05:56:57.324Z,11.60
2018-05-18T05:57:57.295Z,10.80
2018-05-18T05:58:57.261Z,12.00
2018-05-18T05:59:57.218Z,11.60
2018-05-18T06:00:57.268Z,11.80
2018-05-18T06:01:57.145Z,11.70
2018-05-18T06:02:57.757Z,11.30
2018-05-18T06:03:57.067Z,10.80
2018-05-18T06:04:57.059Z,11.40
2018-05-18T06:05:57.082Z,11.30
2018-05-18T06:06:56.966Z,12.50
2018-05-18T06:07:56.932Z,11.70
2018-05-18T06:08:56.888Z,12.00
2018-05-18T06:09:56.861Z,12.10
2018-05-18T06:10:56.810Z,12.10
2018-05-18T06:11:56.769Z,11.90
2018-05-18T06:12:56.760Z,12.10
2018-05-18T06:13:56.695Z,12.30
2018-05-18T06:14:56.671Z,12.50
2018-05-18T06:15:56.635Z,12.10
2018-05-18T06:16:56.586Z,12.20
2018-05-18T06:17:56.561Z,11.90
2018-05-18T06:18:56.526Z,12.00
2018-05-18T06:19:56.505Z,12.10
2018-05-18T06:20:56.482Z,11.90
2018-05-18T06:21:56.398Z,12.10
2018-05-18T06:22:56.363Z,11.90
2018-05-18T06:23:56.340Z,11.90
2018-05-18T06:24:56.323Z,11.50
2018-05-18T06:25:56.305Z,11.30
2018-05-18T06:26:56.237Z,12.30
2018-05-18T06:27:56.213Z,11.60
2018-05-18T06:28:56.141Z,12.40
2018-05-18T06:29:56.115Z,12.70
2018-05-18T06:30:56.067Z,12.10
2018-05-18T06:31:56.031Z,12.50
2018-05-18T06:32:56.030Z,12.10
2018-05-18T06:33:55.971Z,11.70
2018-05-18T06:34:55.998Z,11.90
2018-05-18T06:35:55.938Z,12.40
2018-05-18T06:36:55.848Z,11.90
2018-05-18T06:37:55.827Z,12.10
2018-05-18T06:38:55.826Z,11.40
2018-05-18T06:39:55.749Z,12.00
2018-05-18T06:40:55.761Z,12.10
2018-05-18T06:41:55.761Z,12.10
2018-05-18T06:42:55.634Z,11.80
2018-05-18T06:43:55.595Z,12.50
2018-05-18T06:44:55.555Z,11.60
2018-05-18T06:45:55.525Z,12.60
2018-05-18T06:46:55.633Z,12.10
2018-05-18T06:47:55.464Z,12.20
2018-05-18T06:48:55.413Z,12.00
2018-05-18T06:49:55.445Z,12.90
2018-05-18T06:50:55.350Z,12.40
2018-05-18T06:51:55.309Z,12.70
2018-05-18T06:52:55.290Z,11.60
2018-05-18T06:53:55.237Z,11.60
2018-05-18T06:54:55.224Z,12.00
2018-05-18T06:55:55.205Z,12.20
2018-05-18T06:56:55.147Z,11.80
2018-05-18T06:57:55.099Z,11.70
2018-05-18T06:58:55.067Z,12.20
2018-05-18T06:59:55.026Z,12.10
2018-05-18T07:00:55.011Z,11.90
2018-05-18T07:01:54.951Z,11.50
2018-05-18T07:02:54.913Z,11.90
2018-05-18T07:03:54.866Z,12.00
2018-05-18T07:04:54.843Z,11.90
2018-05-18T07:05:54.827Z,11.50
2018-05-18T07:06:54.749Z,11.30
2018-05-18T07:07:54.717Z,12.10
2018-05-18T07:08:54.703Z,12.00
2018-05-18T07:09:54.667Z,11.40
2018-05-18T07:10:54.628Z,11.80
2018-05-18T07:11:54.573Z,12.20
2018-05-18T07:12:54.541Z,11.80
2018-05-18T07:13:54.497Z,11.70
2018-05-18T07:14:54.472Z,11.60
2018-05-18T07:15:54.464Z,11.20
2018-05-18T07:16:54.402Z,11.40
2018-05-18T07:17:54.378Z,11.50
2018-05-18T07:18:55.280Z,11.90
2018-05-18T07:19:54.276Z,11.50
2018-05-18T07:20:54.263Z,11.70
2018-05-18T07:21:54.278Z,10.80
2018-05-18T07:22:54.259Z,11.00
2018-05-18T07:23:54.158Z,11.40
2018-05-18T07:24:54.134Z,11.10
2018-05-18T07:25:54.103Z,10.90
2018-05-18T07:26:54.021Z,11.10
2018-05-18T07:27:54.013Z,12.40
2018-05-18T07:28:53.961Z,11.20
2018-05-18T07:29:54.091Z,10.70
2018-05-18T07:30:53.913Z,11.20
2018-05-18T07:31:53.857Z,10.70
2018-05-18T07:32:53.824Z,10.90
2018-05-18T07:33:53.874Z,11.40
2018-05-18T07:34:53.788Z,10.60
2018-05-18T07:35:53.728Z,11.30
2018-05-18T07:36:53.727Z,11.10
2018-05-18T07:37:53.632Z,11.20
2018-05-18T07:38:53.603Z,11.00
2018-05-18T07:39:53.587Z,11.00
2018-05-18T07:40:53.554Z,11.40
2018-05-18T07:41:53.524Z,10.90
2018-05-18T07:42:53.487Z,11.00
2018-05-18T07:43:53.534Z,10.90
2018-05-18T07:44:53.433Z,12.00
2018-05-18T07:45:53.373Z,11.70
2018-05-18T07:46:53.355Z,11.60
2018-05-18T07:47:53.304Z,11.60
2018-05-18T07:48:53.266Z,11.70
2018-05-18T07:49:53.293Z,11.80
2018-05-18T07:50:53.186Z,11.30
2018-05-18T07:51:53.168Z,11.80
2018-05-18T07:52:53.165Z,11.50
2018-05-18T07:53:53.086Z,11.60
2018-05-18T07:54:53.072Z,11.00
2018-05-18T07:55:53.038Z,10.90
2018-05-18T07:56:52.994Z,11.60
2018-05-18T07:57:53.806Z,11.80
2018-05-18T07:58:52.909Z,12.10
2018-05-18T07:59:52.872Z,11.90
2018-05-18T08:00:52.834Z,11.50
2018-05-18T08:01:52.813Z,12.20
2018-05-18T08:02:52.746Z,11.90
2018-05-18T08:03:52.730Z,11.60
2018-05-18T08:04:52.672Z,11.80
2018-05-18T08:05:52.721Z,11.70
2018-05-18T08:06:52.600Z,11.80
2018-05-18T08:07:52.576Z,11.70
2018-05-18T08:08:52.556Z,11.50
2018-05-18T08:09:52.494Z,11.90
2018-05-18T08:10:52.473Z,11.30
2018-05-18T08:11:52.415Z,11.90
2018-05-18T08:12:52.417Z,12.30
2018-05-18T08:13:52.373Z,11.80
2018-05-18T08:14:52.319Z,11.20
2018-05-18T08:15:52.393Z,11.90
2018-05-18T08:16:52.244Z,12.40
2018-05-18T08:17:52.203Z,11.00
2018-05-18T08:18:52.203Z,12.10
2018-05-18T08:19:52.143Z,11.40
2018-05-18T08:20:52.122Z,11.50
2018-05-18T08:21:52.077Z,11.50
2018-05-18T08:22:52.090Z,11.40
2018-05-18T08:23:51.997Z,11.50
2018-05-18T08:24:52.012Z,11.20
2018-05-18T08:25:51.939Z,11.30
2018-05-18T08:26:51.883Z,11.50
2018-05-18T08:27:51.865Z,11.70
2018-05-18T08:28:51.816Z,10.90
2018-05-18T08:29:51.786Z,11.70
2018-05-18T08:30:51.737Z,11.50
2018-05-18T08:31:51.723Z,11.60
2018-05-18T08:32:51.679Z,11.90
2018-05-18T08:33:51.645Z,11.00
2018-05-18T08:34:51.654Z,11.30
2018-05-18T08:35:51.611Z,11.50
2018-05-18T08:36:51.573Z,11.20
2018-05-18T08:37:51.517Z,12.00
2018-05-18T08:38:51.547Z,11.70
2018-05-18T08:39:51.460Z,11.80
2018-05-18T08:40:51.409Z,10.90
2018-05-18T08:41:51.387Z,11.30
2018-05-18T08:42:51.328Z,10.90
2018-05-18T08:43:51.300Z,11.80
2018-05-18T08:44:51.294Z,10.90
2018-05-18T08:45:51.240Z,10.80
2018-05-18T08:46:51.304Z,11.00
2018-05-18T08:47:51.205Z,10.80
2018-05-18T08:48:51.134Z,11.00
2018-05-18T08:49:51.115Z,10.60
2018-05-18T08:50:51.067Z,10.90
2018-05-18T08:51:51.048Z,11.20
2018-05-18T08:52:51.015Z,11.00
2018-05-18T08:53:50.945Z,11.10
2018-05-18T08:54:50.891Z,11.00
2018-05-18T08:55:50.954Z,10.20
2018-05-18T08:56:50.840Z,10.20
2018-05-18T08:57:50.800Z,10.50
2018-05-18T08:58:50.778Z,10.70
2018-05-18T08:59:50.816Z,11.00
2018-05-18T09:00:50.698Z,9.90
2018-05-18T09:01:50.669Z,10.80
2018-05-18T09:02:50.628Z,10.70
2018-05-18T09:03:50.584Z,10.30
2018-05-18T09:04:50.559Z,10.40
2018-05-18T09:05:50.544Z,11.20
2018-05-18T09:06:50.486Z,10.50
2018-05-18T09:07:50.451Z,10.40
2018-05-18T09:08:50.492Z,10.20
2018-05-18T09:09:50.452Z,9.70
2018-05-18T09:10:50.353Z,9.50
2018-05-18T09:11:50.320Z,10.40
2018-05-18T09:12:50.331Z,9.30
2018-05-18T09:13:50.242Z,9.40
2018-05-18T09:14:50.217Z,10.20
2018-05-18T09:15:50.204Z,10.40
2018-05-18T09:16:50.152Z,9.80
2018-05-18T09:17:50.230Z,10.00
2018-05-18T09:18:50.131Z,9.40
2018-05-18T09:19:50.027Z,10.00
2018-05-18T09:20:50.006Z,8.90
2018-05-18T09:21:49.967Z,9.40
2018-05-18T09:22:49.931Z,9.80
2018-05-18T09:23:49.910Z,10.20
2018-05-18T09:24:49.896Z,10.00
2018-05-18T09:25:49.835Z,8.90
2018-05-18T09:26:49.830Z,8.90
2018-05-18T09:27:49.755Z,8.30
2018-05-18T09:28:49.749Z,8.90
2018-05-18T09:29:50.341Z,9.40
2018-05-18T09:30:49.671Z,8.90
2018-05-18T09:31:49.626Z,9.30
2018-05-18T09:32:49.599Z,8.80
2018-05-18T09:33:49.560Z,8.60
2018-05-18T09:34:49.520Z,8.90
2018-05-18T09:35:49.498Z,9.30
2018-05-18T09:36:49.487Z,8.80
2018-05-18T09:37:49.496Z,8.70
2018-05-18T09:38:49.386Z,8.60
2018-05-18T09:39:49.387Z,8.90
2018-05-18T09:40:49.316Z,9.00
2018-05-18T09:41:49.285Z,9.20
2018-05-18T09:42:49.253Z,9.10
2018-05-18T09:43:49.293Z,9.10
2018-05-18T09:44:49.166Z,9.20
2018-05-18T09:45:49.155Z,9.20
2018-05-18T09:46:49.120Z,8.80
2018-05-18T09:47:49.083Z,8.50
2018-05-18T09:48:49.042Z,8.80
2018-05-18T09:49:49.010Z,8.70
2018-05-18T09:50:49.015Z,8.40
2018-05-18T09:51:48.956Z,8.60
2018-05-18T09:52:48.908Z,8.90
2018-05-18T09:53:48.884Z,8.90
2018-05-18T09:54:48.956Z,8.90
2018-05-18T09:55:48.819Z,9.50
2018-05-18T09:56:48.789Z,8.50
2018-05-18T09:57:48.750Z,8.80
2018-05-18T09:58:48.707Z,8.60
2018-05-18T09:59:48.734Z,8.80
2018-05-18T10:00:48.662Z,8.60
2018-05-18T10:01:48.627Z,8.00
2018-05-18T10:02:48.592Z,9.20
2018-05-18T10:03:48.565Z,9.10
2018-05-18T10:04:48.551Z,9.20
2018-05-18T10:05:48.499Z,9.30
2018-05-18T10:06:48.519Z,8.90
2018-05-18T10:07:48.426Z,8.40
2018-05-18T10:08:48.375Z,9.30
2018-05-18T10:09:48.354Z,9.10
2018-05-18T10:10:48.320Z,9.00
2018-05-18T10:11:48.314Z,8.30
2018-05-18T10:12:48.261Z,8.60
2018-05-18T10:13:48.212Z,8.90
2018-05-18T10:14:48.174Z,8.90
2018-05-18T10:15:48.216Z,8.70
2018-05-18T10:16:48.113Z,8.20
2018-05-18T10:17:48.105Z,9.00
2018-05-18T10:18:48.064Z,8.80
2018-05-18T10:19:48.018Z,8.30
2018-05-18T10:20:47.994Z,8.50
2018-05-18T10:21:47.974Z,8.50
2018-05-18T10:22:47.917Z,7.80
2018-05-18T10:23:47.889Z,8.50
2018-05-18T10:24:47.870Z,8.50
2018-05-18T10:25:47.850Z,8.00
2018-05-18T10:26:47.775Z,8.30
2018-05-18T10:27:47.790Z,8.70
2018-05-18T10:28:47.787Z,8.80
2018-05-18T10:29:47.697Z,8.50
2018-05-18T10:30:47.675Z,8.50
2018-05-18T10:31:47.624Z,8.50
2018-05-18T10:32:47.580Z,8.40
2018-05-18T10:33:47.638Z,8.50
2018-05-18T10:34:47.515Z,8.20
2018-05-18T10:35:47.510Z,8.10
2018-05-18T10:36:47.454Z,8.40
2018-05-18T10:37:47.438Z,8.60
2018-05-18T10:38:47.421Z,8.70
2018-05-18T10:39:47.373Z,8.60
2018-05-18T10:40:47.374Z,8.60
2018-05-18T10:41:47.310Z,8.00
2018-05-18T10:42:47.265Z,7.90
2018-05-18T10:43:47.272Z,7.70
2018-05-18T10:44:47.194Z,8.10
2018-05-18T10:45:47.170Z,7.80
2018-05-18T10:46:47.203Z,8.50
2018-05-18T10:47:47.104Z,8.40
2018-05-18T10:48:47.113Z,8.20
2018-05-18T10:49:47.026Z,8.00
2018-05-18T10:50:47.012Z,8.30
2018-05-18T10:51:46.991Z,8.20
2018-05-18T10:52:46.947Z,8.10
2018-05-18T10:53:46.930Z,8.30
2018-05-18T10:54:46.895Z,8.40
2018-05-18T10:55:46.872Z,8.00
2018-05-18T10:56:46.815Z,8.40
2018-05-18T10:57:46.772Z,8.50
2018-05-18T10:58:46.733Z,8.80
2018-05-18T10:59:46.717Z,8.40
2018-05-18T11:00:46.727Z,8.60
2018-05-18T11:01:46.668Z,7.70
2018-05-18T11:02:46.643Z,7.70
2018-05-18T11:03:46.658Z,8.20
2018-05-18T11:04:46.568Z,8.60
2018-05-18T11:05:46.507Z,8.70
2018-05-18T11:06:46.502Z,8.30
2018-05-18T11:07:46.472Z,8.20
2018-05-18T11:08:46.466Z,8.30
2018-05-18T11:09:46.400Z,8.20
2018-05-18T11:10:46.398Z,8.00
2018-05-18T11:11:46.346Z,8.10
2018-05-18T11:12:46.335Z,8.00
2018-05-18T11:13:46.277Z,7.90
2018-05-18T11:14:46.880Z,7.90
2018-05-18T11:15:46.237Z,8.90
2018-05-18T11:16:46.849Z,8.10
2018-05-18T11:17:46.154Z,7.90
2018-05-18T11:18:46.139Z,7.20
2018-05-18T11:19:46.089Z,7.90
2018-05-18T11:20:46.115Z,8.30
2018-05-18T11:21:46.017Z,7.90
2018-05-18T11:22:46.037Z,8.20
2018-05-18T11:23:45.947Z,7.90
2018-05-18T11:24:45.918Z,8.20
2018-05-18T11:25:45.889Z,8.10
2018-05-18T11:26:45.872Z,7.70
2018-05-18T11:27:45.846Z,8.00
2018-05-18T11:28:45.777Z,8.20
2018-05-18T11:29:45.744Z,8.30
2018-05-18T11:30:45.741Z,7.80
2018-05-18T11:31:46.358Z,7.60
2018-05-18T11:32:45.674Z,7.80
2018-05-18T11:33:45.635Z,7.60
2018-05-18T11:34:45.594Z,7.70
2018-05-18T11:35:45.670Z,7.70
2018-05-18T11:36:45.537Z,7.40
2018-05-18T11:37:45.497Z,8.20
2018-05-18T11:38:45.488Z,8.10
2018-05-18T11:39:45.452Z,8.20
2018-05-18T11:40:45.406Z,7.80
2018-05-18T11:41:45.366Z,8.50
2018-05-18T11:42:45.349Z,7.90
2018-05-18T11:43:45.467Z,8.80
2018-05-18T11:44:45.286Z,8.30
2018-05-18T11:45:45.266Z,8.50
2018-05-18T11:46:45.253Z,8.10
2018-05-18T11:47:45.204Z,8.00
2018-05-18T11:48:45.172Z,7.60
2018-05-18T11:49:45.161Z,8.30
2018-05-18T11:50:45.127Z,8.30
2018-05-18T11:51:45.076Z,8.60
2018-05-18T11:52:45.023Z,9.10
2018-05-18T11:53:44.995Z,7.70
2018-05-18T11:54:45.066Z,8.40
2018-05-18T11:55:44.990Z,8.10
2018-05-18T11:56:44.920Z,8.80
2018-05-18T11:57:44.878Z,8.80
2018-05-18T11:58:44.855Z,8.50
2018-05-18T11:59:44.842Z,8.20
2018-05-18T12:00:44.801Z,8.70
2018-05-18T12:01:44.758Z,8.40
2018-05-18T12:02:44.830Z,8.10
2018-05-18T12:03:44.724Z,8.10
2018-05-18T12:04:44.667Z,9.10
2018-05-18T12:05:44.651Z,8.00
2018-05-18T12:06:44.623Z,8.10
2018-05-18T12:07:44.571Z,8.30
2018-05-18T12:08:44.635Z,8.00
2018-05-18T12:09:44.530Z,8.30
2018-05-18T12:10:44.488Z,8.80
2018-05-18T12:11:44.494Z,8.70
2018-05-18T12:12:44.440Z,8.80
2018-05-18T12:13:44.415Z,8.60
2018-05-18T12:14:44.435Z,9.00
2018-05-18T12:15:44.377Z,8.60
2018-05-18T12:16:44.335Z,9.00
2018-05-18T12:17:44.326Z,8.90
2018-05-18T12:18:44.262Z,9.60
2018-05-18T12:19:44.239Z,9.50
2018-05-18T12:20:44.202Z,9.50
2018-05-18T12:21:44.167Z,9.70
2018-05-18T12:22:44.178Z,9.20
2018-05-18T12:23:44.113Z,9.50
2018-05-18T12:24:44.121Z,9.40
2018-05-18T12:25:44.056Z,9.70
2018-05-18T12:26:44.126Z,9.00
2018-05-18T12:27:44.000Z,8.80
2018-05-18T12:28:43.970Z,9.40
2018-05-18T12:29:43.972Z,9.10
2018-05-18T12:30:43.928Z,9.30
2018-05-18T12:31:43.924Z,9.10
2018-05-18T12:32:43.876Z,8.90
2018-05-18T12:33:43.848Z,8.10
2018-05-18T12:34:43.797Z,9.50
2018-05-18T12:35:43.784Z,9.10
2018-05-18T12:36:43.748Z,9.00
2018-05-18T12:37:43.719Z,8.80
2018-05-18T12:38:43.672Z,8.70
2018-05-18T12:39:43.661Z,9.40
2018-05-18T12:40:43.651Z,8.30
2018-05-18T12:41:43.620Z,8.50
2018-05-18T12:42:43.756Z,9.30
2018-05-18T12:43:43.550Z,8.90
2018-05-18T12:44:43.570Z,9.90
2018-05-18T12:45:43.515Z,9.40
2018-05-18T12:46:43.468Z,9.70
2018-05-18T12:47:43.438Z,9.60
2018-05-18T12:48:43.412Z,9.30
2018-05-18T12:49:43.407Z,9.60
2018-05-18T12:50:43.353Z,9.90
2018-05-18T12:51:43.323Z,9.40
2018-05-18T12:52:43.279Z,9.40
2018-05-18T12:53:43.290Z,9.80
2018-05-18T12:54:43.223Z,9.30
2018-05-18T12:55:43.202Z,9.00
2018-05-18T12:56:43.206Z,9.90
2018-05-18T12:57:46.936Z,9.60
2018-05-18T12:58:43.120Z,9.20